sensor_id;sensor_type;location;lat;lon;timestamp;P1;durP1;ratioP1;P2;durP2;ratioP2
50906;SDS011;36882;27.680;85.304;2022-08-21T00:01:24;11.32;;;6.97;;
50906;SDS011;36882;27.680;85.304;2022-08-21T00:04:12;10.48;;;6.18;;
50906;SDS011;36882;27.680;85.304;2022-08-21T00:06:49;10.80;;;6.45;;
50906;SDS011;36882;27.680;85.304;2022-08-21T00:09:20;10.05;;;5.68;;
50906;SDS011;36882;27.680;85.304;2022-08-21T00:11:51;10.30;;;5.93;;
50906;SDS011;36882;27.680;85.304;2022-08-21T00:14:21;9.55;;;6.15;;
50906;SDS011;36882;27.680;85.304;2022-08-21T00:16:57;17.52;;;6.40;;
50906;SDS011;36882;27.680;85.304;2022-08-21T00:19:27;18.70;;;7.95;;
50906;SDS011;36882;27.680;85.304;2022-08-21T00:21:58;13.55;;;8.13;;
50906;SDS011;36882;27.680;85.304;2022-08-21T00:24:44;22.15;;;8.70;;
50906;SDS011;36882;27.680;85.304;2022-08-21T00:27:15;15.52;;;8.20;;
50906;SDS011;36882;27.680;85.304;2022-08-21T00:29:45;15.95;;;8.30;;
50906;SDS011;36882;27.680;85.304;2022-08-21T00:32:20;13.50;;;7.13;;
50906;SDS011;36882;27.680;85.304;2022-08-21T00:34:51;20.60;;;7.45;;
50906;SDS011;36882;27.680;85.304;2022-08-21T00:37:23;20.73;;;9.25;;
50906;SDS011;36882;27.680;85.304;2022-08-21T00:42:33;18.65;;;9.35;;
50906;SDS011;36882;27.680;85.304;2022-08-21T00:45:06;24.83;;;9.52;;
50906;SDS011;36882;27.680;85.304;2022-08-21T00:47:37;22.13;;;10.48;;
50906;SDS011;36882;27.680;85.304;2022-08-21T00:50:09;18.15;;;10.18;;
50906;SDS011;36882;27.680;85.304;2022-08-21T00:52:49;33.80;;;11.27;;
50906;SDS011;36882;27.680;85.304;2022-08-21T00:55:21;14.43;;;10.50;;
50906;SDS011;36882;27.680;85.304;2022-08-21T00:57:54;23.05;;;11.05;;
50906;SDS011;36882;27.680;85.304;2022-08-21T01:00:29;23.92;;;10.77;;
50906;SDS011;36882;27.680;85.304;2022-08-21T01:03:04;16.15;;;9.57;;
50906;SDS011;36882;27.680;85.304;2022-08-21T01:05:39;14.13;;;8.60;;
50906;SDS011;36882;27.680;85.304;2022-08-21T01:08:11;13.65;;;7.93;;
50906;SDS011;36882;27.680;85.304;2022-08-21T01:10:43;12.38;;;7.53;;
50906;SDS011;36882;27.680;85.304;2022-08-21T01:13:20;15.98;;;9.18;;
50906;SDS011;36882;27.680;85.304;2022-08-21T01:15:54;19.17;;;8.05;;
50906;SDS011;36882;27.680;85.304;2022-08-21T01:18:26;15.73;;;7.95;;
50906;SDS011;36882;27.680;85.304;2022-08-21T01:23:42;13.90;;;8.38;;
50906;SDS011;36882;27.680;85.304;2022-08-21T01:26:16;13.88;;;8.20;;
50906;SDS011;36882;27.680;85.304;2022-08-21T01:28:58;18.48;;;9.27;;
50906;SDS011;36882;27.680;85.304;2022-08-21T01:31:40;15.52;;;8.73;;
50906;SDS011;36882;27.680;85.304;2022-08-21T01:34:14;20.77;;;10.82;;
50906;SDS011;36882;27.680;85.304;2022-08-21T01:36:45;18.42;;;10.50;;
50906;SDS011;36882;27.680;85.304;2022-08-21T01:39:16;22.02;;;10.82;;
50906;SDS011;36882;27.680;85.304;2022-08-21T01:41:47;19.33;;;9.38;;
50906;SDS011;36882;27.680;85.304;2022-08-21T01:44:20;21.10;;;9.23;;
50906;SDS011;36882;27.680;85.304;2022-08-21T01:46:52;16.23;;;8.65;;
50906;SDS011;36882;27.680;85.304;2022-08-21T01:49:27;14.90;;;8.68;;
50906;SDS011;36882;27.680;85.304;2022-08-21T01:51:58;15.10;;;8.05;;
50906;SDS011;36882;27.680;85.304;2022-08-21T01:54:28;23.25;;;9.43;;
50906;SDS011;36882;27.680;85.304;2022-08-21T01:56:59;22.25;;;8.93;;
50906;SDS011;36882;27.680;85.304;2022-08-21T01:59:30;19.48;;;9.02;;
50906;SDS011;36882;27.680;85.304;2022-08-21T02:02:02;15.57;;;8.75;;
50906;SDS011;36882;27.680;85.304;2022-08-21T02:04:33;17.20;;;8.80;;
50906;SDS011;36882;27.680;85.304;2022-08-21T02:07:03;22.30;;;9.35;;
50906;SDS011;36882;27.680;85.304;2022-08-21T02:09:36;13.43;;;8.88;;
50906;SDS011;36882;27.680;85.304;2022-08-21T02:12:06;22.67;;;9.05;;
50906;SDS011;36882;27.680;85.304;2022-08-21T02:14:37;15.32;;;8.00;;
50906;SDS011;36882;27.680;85.304;2022-08-21T02:17:07;19.25;;;8.68;;
50906;SDS011;36882;27.680;85.304;2022-08-21T02:19:38;16.58;;;8.20;;
50906;SDS011;36882;27.680;85.304;2022-08-21T02:22:09;16.40;;;8.90;;
50906;SDS011;36882;27.680;85.304;2022-08-21T02:24:40;14.45;;;8.80;;
50906;SDS011;36882;27.680;85.304;2022-08-21T02:27:21;18.13;;;9.68;;
50906;SDS011;36882;27.680;85.304;2022-08-21T02:29:54;10.70;;;6.40;;
50906;SDS011;36882;27.680;85.304;2022-08-21T02:32:27;13.65;;;7.53;;
50906;SDS011;36882;27.680;85.304;2022-08-21T02:34:57;16.67;;;9.32;;
50906;SDS011;36882;27.680;85.304;2022-08-21T02:37:28;14.25;;;8.68;;
50906;SDS011;36882;27.680;85.304;2022-08-21T02:39:59;17.20;;;9.68;;
50906;SDS011;36882;27.680;85.304;2022-08-21T02:42:30;17.48;;;9.75;;
50906;SDS011;36882;27.680;85.304;2022-08-21T02:45:01;17.33;;;9.45;;
50906;SDS011;36882;27.680;85.304;2022-08-21T02:47:32;18.40;;;9.35;;
50906;SDS011;36882;27.680;85.304;2022-08-21T02:50:03;18.23;;;9.50;;
50906;SDS011;36882;27.680;85.304;2022-08-21T02:52:34;12.60;;;9.00;;
50906;SDS011;36882;27.680;85.304;2022-08-21T02:55:05;18.63;;;8.63;;
50906;SDS011;36882;27.680;85.304;2022-08-21T02:57:36;13.05;;;8.82;;
50906;SDS011;36882;27.680;85.304;2022-08-21T03:00:09;13.52;;;7.15;;
50906;SDS011;36882;27.680;85.304;2022-08-21T03:02:41;12.77;;;7.05;;
50906;SDS011;36882;27.680;85.304;2022-08-21T03:05:14;11.52;;;6.85;;
50906;SDS011;36882;27.680;85.304;2022-08-21T03:07:46;26.20;;;7.97;;
50906;SDS011;36882;27.680;85.304;2022-08-21T03:10:17;14.48;;;7.50;;
50906;SDS011;36882;27.680;85.304;2022-08-21T03:12:50;11.75;;;7.30;;
50906;SDS011;36882;27.680;85.304;2022-08-21T03:15:21;14.00;;;6.85;;
50906;SDS011;36882;27.680;85.304;2022-08-21T03:17:53;13.00;;;8.90;;
50906;SDS011;36882;27.680;85.304;2022-08-21T03:20:24;11.02;;;6.68;;
50906;SDS011;36882;27.680;85.304;2022-08-21T03:22:58;10.80;;;5.68;;
50906;SDS011;36882;27.680;85.304;2022-08-21T03:25:31;10.00;;;6.40;;
50906;SDS011;36882;27.680;85.304;2022-08-21T03:28:08;26.40;;;6.10;;
50906;SDS011;36882;27.680;85.304;2022-08-21T03:30:41;8.43;;;3.97;;
50906;SDS011;36882;27.680;85.304;2022-08-21T03:33:13;14.88;;;4.88;;
50906;SDS011;36882;27.680;85.304;2022-08-21T03:35:52;12.85;;;6.28;;
50906;SDS011;36882;27.680;85.304;2022-08-21T03:38:32;11.18;;;5.65;;
50906;SDS011;36882;27.680;85.304;2022-08-21T03:41:06;11.75;;;5.75;;
50906;SDS011;36882;27.680;85.304;2022-08-21T03:43:38;16.02;;;6.68;;
50906;SDS011;36882;27.680;85.304;2022-08-21T03:46:09;10.70;;;5.60;;
50906;SDS011;36882;27.680;85.304;2022-08-21T03:48:40;18.45;;;6.80;;
50906;SDS011;36882;27.680;85.304;2022-08-21T03:51:10;10.63;;;7.00;;
50906;SDS011;36882;27.680;85.304;2022-08-21T03:53:40;18.85;;;6.70;;
50906;SDS011;36882;27.680;85.304;2022-08-21T03:56:11;16.10;;;7.20;;
50906;SDS011;36882;27.680;85.304;2022-08-21T03:58:41;14.98;;;6.28;;
50906;SDS011;36882;27.680;85.304;2022-08-21T04:01:12;10.73;;;6.18;;
50906;SDS011;36882;27.680;85.304;2022-08-21T04:03:43;8.68;;;6.60;;
50906;SDS011;36882;27.680;85.304;2022-08-21T04:06:13;10.48;;;6.30;;
50906;SDS011;36882;27.680;85.304;2022-08-21T04:08:44;11.40;;;6.45;;
50906;SDS011;36882;27.680;85.304;2022-08-21T04:11:14;11.10;;;5.70;;
50906;SDS011;36882;27.680;85.304;2022-08-21T04:13:45;14.68;;;6.07;;
50906;SDS011;36882;27.680;85.304;2022-08-21T04:16:16;12.85;;;5.22;;
50906;SDS011;36882;27.680;85.304;2022-08-21T04:18:48;7.55;;;5.65;;
50906;SDS011;36882;27.680;85.304;2022-08-21T04:21:18;10.60;;;4.68;;
50906;SDS011;36882;27.680;85.304;2022-08-21T04:23:50;10.27;;;5.35;;
50906;SDS011;36882;27.680;85.304;2022-08-21T04:26:21;10.85;;;5.35;;
50906;SDS011;36882;27.680;85.304;2022-08-21T04:28:51;5.82;;;5.05;;
50906;SDS011;36882;27.680;85.304;2022-08-21T04:31:22;9.82;;;4.75;;
50906;SDS011;36882;27.680;85.304;2022-08-21T04:33:53;11.15;;;4.85;;
50906;SDS011;36882;27.680;85.304;2022-08-21T04:36:26;7.78;;;4.70;;
50906;SDS011;36882;27.680;85.304;2022-08-21T04:38:56;12.98;;;5.22;;
50906;SDS011;36882;27.680;85.304;2022-08-21T04:41:29;5.95;;;4.18;;
50906;SDS011;36882;27.680;85.304;2022-08-21T04:43:59;7.10;;;3.60;;
50906;SDS011;36882;27.680;85.304;2022-08-21T04:46:30;11.48;;;4.13;;
50906;SDS011;36882;27.680;85.304;2022-08-21T04:49:00;6.85;;;3.65;;
50906;SDS011;36882;27.680;85.304;2022-08-21T04:51:33;7.60;;;4.05;;
50906;SDS011;36882;27.680;85.304;2022-08-21T04:54:08;6.75;;;3.65;;
50906;SDS011;36882;27.680;85.304;2022-08-21T04:56:45;7.43;;;3.25;;
50906;SDS011;36882;27.680;85.304;2022-08-21T04:59:26;18.02;;;4.90;;
50906;SDS011;36882;27.680;85.304;2022-08-21T05:02:02;11.05;;;5.95;;
50906;SDS011;36882;27.680;85.304;2022-08-21T05:04:36;11.98;;;6.28;;
50906;SDS011;36882;27.680;85.304;2022-08-21T05:07:12;15.38;;;6.40;;
50906;SDS011;36882;27.680;85.304;2022-08-21T05:10:06;12.57;;;6.07;;
50906;SDS011;36882;27.680;85.304;2022-08-21T05:12:38;6.72;;;4.05;;
50906;SDS011;36882;27.680;85.304;2022-08-21T05:15:11;6.88;;;3.65;;
50906;SDS011;36882;27.680;85.304;2022-08-21T05:17:42;13.20;;;4.72;;
50906;SDS011;36882;27.680;85.304;2022-08-21T05:20:21;8.80;;;4.75;;
50906;SDS011;36882;27.680;85.304;2022-08-21T05:22:51;9.82;;;4.68;;
50906;SDS011;36882;27.680;85.304;2022-08-21T05:25:23;11.98;;;5.13;;
50906;SDS011;36882;27.680;85.304;2022-08-21T05:28:00;9.10;;;5.15;;
50906;SDS011;36882;27.680;85.304;2022-08-21T05:30:32;9.07;;;4.88;;
50906;SDS011;36882;27.680;85.304;2022-08-21T05:33:03;7.93;;;4.78;;
50906;SDS011;36882;27.680;85.304;2022-08-21T05:35:36;8.80;;;4.60;;
50906;SDS011;36882;27.680;85.304;2022-08-21T05:38:07;8.20;;;4.25;;
50906;SDS011;36882;27.680;85.304;2022-08-21T05:40:44;8.57;;;4.40;;
50906;SDS011;36882;27.680;85.304;2022-08-21T05:43:15;8.43;;;3.65;;
50906;SDS011;36882;27.680;85.304;2022-08-21T05:45:49;6.47;;;4.20;;
50906;SDS011;36882;27.680;85.304;2022-08-21T05:48:21;15.48;;;4.63;;
50906;SDS011;36882;27.680;85.304;2022-08-21T05:50:53;8.63;;;3.85;;
50906;SDS011;36882;27.680;85.304;2022-08-21T05:53:26;8.02;;;4.00;;
50906;SDS011;36882;27.680;85.304;2022-08-21T05:55:57;8.13;;;3.38;;
50906;SDS011;36882;27.680;85.304;2022-08-21T05:58:27;6.30;;;3.55;;
50906;SDS011;36882;27.680;85.304;2022-08-21T06:00:58;9.63;;;3.72;;
50906;SDS011;36882;27.680;85.304;2022-08-21T06:03:30;9.52;;;3.10;;
50906;SDS011;36882;27.680;85.304;2022-08-21T06:06:03;6.47;;;3.30;;
50906;SDS011;36882;27.680;85.304;2022-08-21T06:08:34;7.30;;;3.50;;
50906;SDS011;36882;27.680;85.304;2022-08-21T06:11:05;9.75;;;3.50;;
50906;SDS011;36882;27.680;85.304;2022-08-21T06:13:37;5.93;;;3.55;;
50906;SDS011;36882;27.680;85.304;2022-08-21T06:16:23;8.82;;;3.88;;
50906;SDS011;36882;27.680;85.304;2022-08-21T06:18:54;5.60;;;3.38;;
50906;SDS011;36882;27.680;85.304;2022-08-21T06:21:28;8.02;;;3.33;;
50906;SDS011;36882;27.680;85.304;2022-08-21T06:23:59;18.00;;;4.50;;
50906;SDS011;36882;27.680;85.304;2022-08-21T06:26:29;11.88;;;3.95;;
50906;SDS011;36882;27.680;85.304;2022-08-21T06:29:00;8.38;;;3.10;;
50906;SDS011;36882;27.680;85.304;2022-08-21T06:31:31;7.30;;;2.70;;
50906;SDS011;36882;27.680;85.304;2022-08-21T06:34:01;5.43;;;3.15;;
50906;SDS011;36882;27.680;85.304;2022-08-21T06:36:31;6.70;;;2.83;;
50906;SDS011;36882;27.680;85.304;2022-08-21T06:39:02;4.32;;;2.80;;
50906;SDS011;36882;27.680;85.304;2022-08-21T06:41:51;4.35;;;2.97;;
50906;SDS011;36882;27.680;85.304;2022-08-21T06:44:21;7.65;;;3.95;;
50906;SDS011;36882;27.680;85.304;2022-08-21T06:46:52;12.45;;;4.35;;
50906;SDS011;36882;27.680;85.304;2022-08-21T06:49:22;5.93;;;2.88;;
50906;SDS011;36882;27.680;85.304;2022-08-21T06:51:53;7.90;;;2.80;;
50906;SDS011;36882;27.680;85.304;2022-08-21T06:54:24;9.43;;;3.65;;
50906;SDS011;36882;27.680;85.304;2022-08-21T06:56:54;11.43;;;3.03;;
50906;SDS011;36882;27.680;85.304;2022-08-21T06:59:25;4.93;;;3.15;;
50906;SDS011;36882;27.680;85.304;2022-08-21T07:01:55;5.47;;;3.08;;
50906;SDS011;36882;27.680;85.304;2022-08-21T07:04:26;7.18;;;3.83;;
50906;SDS011;36882;27.680;85.304;2022-08-21T07:06:56;11.68;;;4.55;;
50906;SDS011;36882;27.680;85.304;2022-08-21T07:09:42;8.55;;;3.97;;
50906;SDS011;36882;27.680;85.304;2022-08-21T07:12:13;8.75;;;4.55;;
50906;SDS011;36882;27.680;85.304;2022-08-21T07:14:59;4.68;;;3.13;;
50906;SDS011;36882;27.680;85.304;2022-08-21T07:17:29;9.73;;;3.85;;
50906;SDS011;36882;27.680;85.304;2022-08-21T07:20:00;3.85;;;2.63;;
50906;SDS011;36882;27.680;85.304;2022-08-21T07:22:30;7.25;;;3.10;;
50906;SDS011;36882;27.680;85.304;2022-08-21T07:25:02;7.82;;;2.58;;
50906;SDS011;36882;27.680;85.304;2022-08-21T07:27:33;5.70;;;2.63;;
50906;SDS011;36882;27.680;85.304;2022-08-21T07:30:07;4.63;;;2.83;;
50906;SDS011;36882;27.680;85.304;2022-08-21T07:32:38;6.95;;;2.70;;
50906;SDS011;36882;27.680;85.304;2022-08-21T07:35:08;6.57;;;3.33;;
50906;SDS011;36882;27.680;85.304;2022-08-21T07:37:39;6.75;;;3.33;;
50906;SDS011;36882;27.680;85.304;2022-08-21T07:40:09;4.30;;;2.90;;
50906;SDS011;36882;27.680;85.304;2022-08-21T07:42:43;7.32;;;4.10;;
50906;SDS011;36882;27.680;85.304;2022-08-21T07:45:15;5.85;;;4.18;;
50906;SDS011;36882;27.680;85.304;2022-08-21T07:47:47;10.13;;;3.45;;
50906;SDS011;36882;27.680;85.304;2022-08-21T07:50:23;9.18;;;3.50;;
50906;SDS011;36882;27.680;85.304;2022-08-21T07:52:54;4.82;;;2.55;;
50906;SDS011;36882;27.680;85.304;2022-08-21T07:55:25;6.68;;;2.95;;
50906;SDS011;36882;27.680;85.304;2022-08-21T07:57:56;11.23;;;3.28;;
50906;SDS011;36882;27.680;85.304;2022-08-21T08:00:27;8.63;;;3.03;;
50906;SDS011;36882;27.680;85.304;2022-08-21T08:02:58;4.05;;;2.72;;
50906;SDS011;36882;27.680;85.304;2022-08-21T08:05:29;7.72;;;3.40;;
50906;SDS011;36882;27.680;85.304;2022-08-21T08:08:01;6.53;;;2.92;;
50906;SDS011;36882;27.680;85.304;2022-08-21T08:10:31;7.45;;;2.75;;
50906;SDS011;36882;27.680;85.304;2022-08-21T08:13:02;6.45;;;2.85;;
50906;SDS011;36882;27.680;85.304;2022-08-21T08:15:36;9.13;;;2.95;;
50906;SDS011;36882;27.680;85.304;2022-08-21T08:18:08;10.63;;;2.78;;
50906;SDS011;36882;27.680;85.304;2022-08-21T08:20:39;5.93;;;2.53;;
50906;SDS011;36882;27.680;85.304;2022-08-21T08:23:10;9.80;;;3.28;;
50906;SDS011;36882;27.680;85.304;2022-08-21T08:25:43;7.05;;;2.78;;
50906;SDS011;36882;27.680;85.304;2022-08-21T08:28:13;4.35;;;2.47;;
50906;SDS011;36882;27.680;85.304;2022-08-21T08:30:45;7.55;;;3.65;;
50906;SDS011;36882;27.680;85.304;2022-08-21T08:33:15;4.88;;;2.78;;
50906;SDS011;36882;27.680;85.304;2022-08-21T08:35:47;9.18;;;5.03;;
50906;SDS011;36882;27.680;85.304;2022-08-21T08:38:22;8.00;;;3.42;;
50906;SDS011;36882;27.680;85.304;2022-08-21T08:40:57;5.57;;;3.28;;
50906;SDS011;36882;27.680;85.304;2022-08-21T08:43:52;5.78;;;3.05;;
50906;SDS011;36882;27.680;85.304;2022-08-21T08:46:31;4.43;;;3.03;;
50906;SDS011;36882;27.680;85.304;2022-08-21T08:49:30;6.50;;;3.20;;
50906;SDS011;36882;27.680;85.304;2022-08-21T08:52:11;10.07;;;3.53;;
50906;SDS011;36882;27.680;85.304;2022-08-21T08:55:04;9.73;;;3.63;;
50906;SDS011;36882;27.680;85.304;2022-08-21T09:00:26;6.57;;;2.85;;
50906;SDS011;36882;27.680;85.304;2022-08-21T09:02:57;4.53;;;2.17;;
50906;SDS011;36882;27.680;85.304;2022-08-21T09:08:45;4.03;;;2.33;;
50906;SDS011;36882;27.680;85.304;2022-08-21T09:20:47;7.68;;;2.92;;
50906;SDS011;36882;27.680;85.304;2022-08-21T09:29:39;7.22;;;2.55;;
50906;SDS011;36882;27.680;85.304;2022-08-21T09:32:22;5.72;;;3.22;;
50906;SDS011;36882;27.680;85.304;2022-08-21T09:35:07;6.90;;;2.90;;
50906;SDS011;36882;27.680;85.304;2022-08-21T09:37:47;7.65;;;2.28;;
50906;SDS011;36882;27.680;85.304;2022-08-21T09:40:40;6.10;;;2.22;;
50906;SDS011;36882;27.680;85.304;2022-08-21T09:43:19;14.77;;;3.38;;
50906;SDS011;36882;27.680;85.304;2022-08-21T09:48:44;10.55;;;4.30;;
50906;SDS011;36882;27.680;85.304;2022-08-21T09:51:22;11.00;;;3.92;;
50906;SDS011;36882;27.680;85.304;2022-08-21T09:56:59;9.02;;;4.10;;
50906;SDS011;36882;27.680;85.304;2022-08-21T09:59:53;12.93;;;2.85;;
50906;SDS011;36882;27.680;85.304;2022-08-21T10:02:26;9.98;;;3.05;;
50906;SDS011;36882;27.680;85.304;2022-08-21T10:05:01;8.88;;;3.25;;
50906;SDS011;36882;27.680;85.304;2022-08-21T10:07:41;6.45;;;2.65;;
50906;SDS011;36882;27.680;85.304;2022-08-21T10:10:16;8.80;;;3.38;;
50906;SDS011;36882;27.680;85.304;2022-08-21T10:13:00;6.63;;;2.90;;
50906;SDS011;36882;27.680;85.304;2022-08-21T10:16:07;10.30;;;3.97;;
50906;SDS011;36882;27.680;85.304;2022-08-21T10:19:00;9.98;;;4.25;;
50906;SDS011;36882;27.680;85.304;2022-08-21T10:21:48;7.93;;;4.00;;
50906;SDS011;36882;27.680;85.304;2022-08-21T10:24:31;7.15;;;2.92;;
50906;SDS011;36882;27.680;85.304;2022-08-21T10:27:11;11.60;;;3.80;;
50906;SDS011;36882;27.680;85.304;2022-08-21T10:29:53;10.65;;;3.55;;
50906;SDS011;36882;27.680;85.304;2022-08-21T10:32:40;10.38;;;4.15;;
50906;SDS011;36882;27.680;85.304;2022-08-21T10:35:22;16.48;;;3.25;;
50906;SDS011;36882;27.680;85.304;2022-08-21T10:38:16;70.28;;;7.88;;
50906;SDS011;36882;27.680;85.304;2022-08-21T10:41:32;10.35;;;3.85;;
50906;SDS011;36882;27.680;85.304;2022-08-21T10:47:38;12.32;;;3.83;;
50906;SDS011;36882;27.680;85.304;2022-08-21T10:50:30;13.43;;;3.53;;
50906;SDS011;36882;27.680;85.304;2022-08-21T10:53:13;7.82;;;4.20;;
50906;SDS011;36882;27.680;85.304;2022-08-21T10:56:05;8.82;;;3.92;;
50906;SDS011;36882;27.680;85.304;2022-08-21T10:58:49;13.00;;;4.13;;
50906;SDS011;36882;27.680;85.304;2022-08-21T11:04:37;12.48;;;3.60;;
50906;SDS011;36882;27.680;85.304;2022-08-21T11:07:21;8.63;;;3.22;;
50906;SDS011;36882;27.680;85.304;2022-08-21T11:10:02;10.15;;;3.50;;
50906;SDS011;36882;27.680;85.304;2022-08-21T11:13:00;11.18;;;3.92;;
50906;SDS011;36882;27.680;85.304;2022-08-21T11:15:56;6.35;;;4.00;;
50906;SDS011;36882;27.680;85.304;2022-08-21T11:18:39;5.65;;;3.40;;
50906;SDS011;36882;27.680;85.304;2022-08-21T11:21:21;4.38;;;2.80;;
50906;SDS011;36882;27.680;85.304;2022-08-21T11:27:27;13.98;;;4.20;;
50906;SDS011;36882;27.680;85.304;2022-08-21T11:30:04;7.60;;;3.63;;
50906;SDS011;36882;27.680;85.304;2022-08-21T11:36:18;9.10;;;5.32;;
50906;SDS011;36882;27.680;85.304;2022-08-21T11:39:12;15.13;;;5.35;;
50906;SDS011;36882;27.680;85.304;2022-08-21T11:48:00;9.82;;;5.25;;
50906;SDS011;36882;27.680;85.304;2022-08-21T11:50:45;13.25;;;7.30;;
50906;SDS011;36882;27.680;85.304;2022-08-21T11:53:24;12.10;;;5.60;;
50906;SDS011;36882;27.680;85.304;2022-08-21T11:56:12;12.75;;;5.65;;
50906;SDS011;36882;27.680;85.304;2022-08-21T11:58:49;10.77;;;5.43;;
50906;SDS011;36882;27.680;85.304;2022-08-21T12:01:30;14.07;;;5.18;;
50906;SDS011;36882;27.680;85.304;2022-08-21T12:04:07;11.35;;;5.03;;
50906;SDS011;36882;27.680;85.304;2022-08-21T12:07:27;11.60;;;7.15;;
50906;SDS011;36882;27.680;85.304;2022-08-21T12:10:04;11.65;;;5.55;;
50906;SDS011;36882;27.680;85.304;2022-08-21T12:12:38;14.57;;;6.47;;
50906;SDS011;36882;27.680;85.304;2022-08-21T12:15:27;23.90;;;7.03;;
50906;SDS011;36882;27.680;85.304;2022-08-21T12:18:01;12.50;;;7.47;;
50906;SDS011;36882;27.680;85.304;2022-08-21T12:20:39;10.23;;;6.80;;
50906;SDS011;36882;27.680;85.304;2022-08-21T12:23:28;8.73;;;5.93;;
50906;SDS011;36882;27.680;85.304;2022-08-21T12:26:23;13.35;;;6.07;;
50906;SDS011;36882;27.680;85.304;2022-08-21T12:32:04;14.48;;;6.57;;
50906;SDS011;36882;27.680;85.304;2022-08-21T12:35:15;12.02;;;8.20;;
50906;SDS011;36882;27.680;85.304;2022-08-21T12:37:56;15.90;;;6.88;;
50906;SDS011;36882;27.680;85.304;2022-08-21T12:40:40;10.40;;;7.60;;
50906;SDS011;36882;27.680;85.304;2022-08-21T12:43:42;7.65;;;5.35;;
50906;SDS011;36882;27.680;85.304;2022-08-21T12:46:37;6.38;;;5.40;;
50906;SDS011;36882;27.680;85.304;2022-08-21T12:49:14;7.72;;;4.38;;
50906;SDS011;36882;27.680;85.304;2022-08-21T12:51:57;8.65;;;4.85;;
50906;SDS011;36882;27.680;85.304;2022-08-21T12:54:41;8.32;;;5.25;;
50906;SDS011;36882;27.680;85.304;2022-08-21T12:57:24;6.70;;;4.72;;
50906;SDS011;36882;27.680;85.304;2022-08-21T13:00:12;8.90;;;4.97;;
50906;SDS011;36882;27.680;85.304;2022-08-21T13:03:05;10.32;;;5.15;;
50906;SDS011;36882;27.680;85.304;2022-08-21T13:05:59;6.85;;;5.15;;
50906;SDS011;36882;27.680;85.304;2022-08-21T13:08:35;11.25;;;4.95;;
50906;SDS011;36882;27.680;85.304;2022-08-21T13:11:13;11.25;;;6.57;;
50906;SDS011;36882;27.680;85.304;2022-08-21T13:14:00;12.30;;;6.10;;
50906;SDS011;36882;27.680;85.304;2022-08-21T13:16:47;9.18;;;5.68;;
50906;SDS011;36882;27.680;85.304;2022-08-21T13:19:25;9.90;;;7.45;;
50906;SDS011;36882;27.680;85.304;2022-08-21T13:21:56;13.70;;;7.55;;
50906;SDS011;36882;27.680;85.304;2022-08-21T13:24:48;10.30;;;6.78;;
50906;SDS011;36882;27.680;85.304;2022-08-21T13:27:21;11.02;;;8.85;;
50906;SDS011;36882;27.680;85.304;2022-08-21T13:32:43;16.75;;;7.22;;
50906;SDS011;36882;27.680;85.304;2022-08-21T13:38:20;12.02;;;8.02;;
50906;SDS011;36882;27.680;85.304;2022-08-21T13:41:17;15.52;;;7.47;;
50906;SDS011;36882;27.680;85.304;2022-08-21T13:44:00;16.10;;;8.18;;
50906;SDS011;36882;27.680;85.304;2022-08-21T13:46:34;12.95;;;7.85;;
50906;SDS011;36882;27.680;85.304;2022-08-21T13:49:06;14.70;;;8.70;;
50906;SDS011;36882;27.680;85.304;2022-08-21T13:51:39;14.23;;;8.10;;
50906;SDS011;36882;27.680;85.304;2022-08-21T13:56:53;11.18;;;8.05;;
50906;SDS011;36882;27.680;85.304;2022-08-21T13:59:25;10.90;;;7.25;;
50906;SDS011;36882;27.680;85.304;2022-08-21T14:02:01;16.13;;;8.68;;
50906;SDS011;36882;27.680;85.304;2022-08-21T14:04:48;14.73;;;9.55;;
50906;SDS011;36882;27.680;85.304;2022-08-21T14:07:41;12.07;;;9.20;;
50906;SDS011;36882;27.680;85.304;2022-08-21T14:10:28;13.35;;;9.00;;
50906;SDS011;36882;27.680;85.304;2022-08-21T14:13:02;21.30;;;9.80;;
50906;SDS011;36882;27.680;85.304;2022-08-21T14:15:35;14.20;;;7.75;;
50906;SDS011;36882;27.680;85.304;2022-08-21T14:18:09;14.80;;;8.65;;
50906;SDS011;36882;27.680;85.304;2022-08-21T14:20:45;13.80;;;8.02;;
50906;SDS011;36882;27.680;85.304;2022-08-21T14:23:31;12.07;;;7.55;;
50906;SDS011;36882;27.680;85.304;2022-08-21T14:26:03;9.70;;;7.45;;
50906;SDS011;36882;27.680;85.304;2022-08-21T14:28:38;8.18;;;6.40;;
50906;SDS011;36882;27.680;85.304;2022-08-21T14:31:15;13.98;;;7.90;;
50906;SDS011;36882;27.680;85.304;2022-08-21T14:33:49;11.75;;;7.80;;
50906;SDS011;36882;27.680;85.304;2022-08-21T14:36:24;18.40;;;7.85;;
50906;SDS011;36882;27.680;85.304;2022-08-21T14:38:56;11.38;;;7.55;;
50906;SDS011;36882;27.680;85.304;2022-08-21T14:41:29;10.45;;;7.88;;
50906;SDS011;36882;27.680;85.304;2022-08-21T14:44:16;10.48;;;7.10;;
50906;SDS011;36882;27.680;85.304;2022-08-21T14:46:49;17.20;;;7.60;;
50906;SDS011;36882;27.680;85.304;2022-08-21T14:49:24;15.20;;;8.82;;
50906;SDS011;36882;27.680;85.304;2022-08-21T14:51:56;8.80;;;7.90;;
50906;SDS011;36882;27.680;85.304;2022-08-21T14:54:28;12.07;;;8.43;;
50906;SDS011;36882;27.680;85.304;2022-08-21T14:57:15;15.88;;;8.93;;
50906;SDS011;36882;27.680;85.304;2022-08-21T14:59:46;19.58;;;8.77;;
50906;SDS011;36882;27.680;85.304;2022-08-21T15:02:16;17.48;;;9.68;;
50906;SDS011;36882;27.680;85.304;2022-08-21T15:04:49;22.48;;;8.55;;
50906;SDS011;36882;27.680;85.304;2022-08-21T15:07:19;11.23;;;10.05;;
50906;SDS011;36882;27.680;85.304;2022-08-21T15:10:06;18.42;;;9.88;;
50906;SDS011;36882;27.680;85.304;2022-08-21T15:12:38;15.93;;;9.57;;
50906;SDS011;36882;27.680;85.304;2022-08-21T15:15:10;16.42;;;8.70;;
50906;SDS011;36882;27.680;85.304;2022-08-21T15:17:56;13.52;;;9.85;;
50906;SDS011;36882;27.680;85.304;2022-08-21T15:20:26;14.50;;;10.20;;
50906;SDS011;36882;27.680;85.304;2022-08-21T15:22:57;23.30;;;10.57;;
50906;SDS011;36882;27.680;85.304;2022-08-21T15:25:27;16.75;;;10.95;;
50906;SDS011;36882;27.680;85.304;2022-08-21T15:27:58;24.27;;;12.85;;
50906;SDS011;36882;27.680;85.304;2022-08-21T15:30:29;20.38;;;11.32;;
50906;SDS011;36882;27.680;85.304;2022-08-21T15:33:00;16.02;;;9.65;;
50906;SDS011;36882;27.680;85.304;2022-08-21T15:35:31;18.70;;;11.40;;
50906;SDS011;36882;27.680;85.304;2022-08-21T15:38:06;16.73;;;10.57;;
50906;SDS011;36882;27.680;85.304;2022-08-21T15:40:37;15.15;;;9.60;;
50906;SDS011;36882;27.680;85.304;2022-08-21T15:43:27;16.40;;;11.23;;
50906;SDS011;36882;27.680;85.304;2022-08-21T15:46:00;15.95;;;9.80;;
50906;SDS011;36882;27.680;85.304;2022-08-21T15:48:33;14.65;;;9.00;;
50906;SDS011;36882;27.680;85.304;2022-08-21T15:51:06;15.98;;;9.45;;
50906;SDS011;36882;27.680;85.304;2022-08-21T15:53:37;14.10;;;9.85;;
50906;SDS011;36882;27.680;85.304;2022-08-21T15:56:11;20.80;;;10.13;;
50906;SDS011;36882;27.680;85.304;2022-08-21T15:59:05;18.05;;;9.80;;
50906;SDS011;36882;27.680;85.304;2022-08-21T16:01:38;14.60;;;9.15;;
50906;SDS011;36882;27.680;85.304;2022-08-21T16:04:13;12.50;;;8.95;;
50906;SDS011;36882;27.680;85.304;2022-08-21T16:06:51;16.08;;;9.05;;
50906;SDS011;36882;27.680;85.304;2022-08-21T16:09:32;16.00;;;9.13;;
50906;SDS011;36882;27.680;85.304;2022-08-21T16:12:03;10.85;;;9.13;;
50906;SDS011;36882;27.680;85.304;2022-08-21T16:14:35;10.57;;;9.30;;
50906;SDS011;36882;27.680;85.304;2022-08-21T16:17:06;13.48;;;9.40;;
50906;SDS011;36882;27.680;85.304;2022-08-21T16:19:38;20.40;;;10.27;;
50906;SDS011;36882;27.680;85.304;2022-08-21T16:22:08;12.35;;;9.95;;